sensor_id;sensor_type;location;lat;lon;timestamp;pressure;altitude;pressure_sealevel;temperature;humidity
22000;BME280;11164;48.818;2.322;2023-05-23T00:00:16;101018.88;;;18.54;41.96
22000;BME280;11164;48.818;2.322;2023-05-23T00:02:41;101017.00;;;18.83;41.08
22000;BME280;11164;48.818;2.322;2023-05-23T00:05:07;101019.69;;;18.54;42.06
22000;BME280;11164;48.818;2.322;2023-05-23T00:07:33;101021.75;;;18.47;42.11
22000;BME280;11164;48.818;2.322;2023-05-23T00:09:58;101021.63;;;18.42;41.82
22000;BME280;11164;48.818;2.322;2023-05-23T00:12:24;101027.41;;;18.58;41.90
22000;BME280;11164;48.818;2.322;2023-05-23T00:14:50;101022.06;;;18.63;41.58
22000;BME280;11164;48.818;2.322;2023-05-23T00:17:17;101017.53;;;18.68;41.88
22000;BME280;11164;48.818;2.322;2023-05-23T00:19:43;101006.47;;;18.75;41.57
22000;BME280;11164;48.818;2.322;2023-05-23T00:22:11;101007.28;;;18.75;41.48
22000;BME280;11164;48.818;2.322;2023-05-23T00:24:36;100998.06;;;18.65;41.50
22000;BME280;11164;48.818;2.322;2023-05-23T00:27:02;101000.69;;;18.60;41.58
22000;BME280;11164;48.818;2.322;2023-05-23T00:29:27;101003.75;;;18.63;41.89
22000;BME280;11164;48.818;2.322;2023-05-23T00:31:52;101006.97;;;18.60;41.96
22000;BME280;11164;48.818;2.322;2023-05-23T00:34:18;101015.00;;;18.50;41.89
22000;BME280;11164;48.818;2.322;2023-05-23T00:36:43;101003.97;;;18.45;41.88
22000;BME280;11164;48.818;2.322;2023-05-23T00:39:11;101000.78;;;18.65;41.78
22000;BME280;11164;48.818;2.322;2023-05-23T00:41:45;101007.25;;;18.87;41.22
22000;BME280;11164;48.818;2.322;2023-05-23T00:44:10;101008.44;;;18.91;41.34
22000;BME280;11164;48.818;2.322;2023-05-23T00:46:36;101011.88;;;18.46;42.15
22000;BME280;11164;48.818;2.322;2023-05-23T00:49:01;101008.00;;;18.30;42.10
22000;BME280;11164;48.818;2.322;2023-05-23T00:51:27;101017.03;;;18.19;42.17
22000;BME280;11164;48.818;2.322;2023-05-23T00:53:53;101020.34;;;18.21;42.26
22000;BME280;11164;48.818;2.322;2023-05-23T00:56:19;101022.63;;;18.00;42.58
22000;BME280;11164;48.818;2.322;2023-05-23T00:58:45;101013.97;;;17.56;43.15
22000;BME280;11164;48.818;2.322;2023-05-23T01:01:10;101013.13;;;17.91;42.51
22000;BME280;11164;48.818;2.322;2023-05-23T01:03:36;101003.88;;;18.04;41.91
22000;BME280;11164;48.818;2.322;2023-05-23T01:06:01;101015.13;;;17.96;42.45
22000;BME280;11164;48.818;2.322;2023-05-23T01:08:28;100996.63;;;18.10;41.97
22000;BME280;11164;48.818;2.322;2023-05-23T01:10:55;101013.00;;;17.62;42.76
22000;BME280;11164;48.818;2.322;2023-05-23T01:13:47;101005.78;;;17.26;44.81
22000;BME280;11164;48.818;2.322;2023-05-23T01:16:23;101005.19;;;17.24;43.71
22000;BME280;11164;48.818;2.322;2023-05-23T01:18:58;100998.56;;;17.32;43.91
22000;BME280;11164;48.818;2.322;2023-05-23T01:21:28;101007.16;;;17.47;42.95
22000;BME280;11164;48.818;2.322;2023-05-23T01:29:27;101008.00;;;18.30;41.22
22000;BME280;11164;48.818;2.322;2023-05-23T01:31:57;101014.56;;;18.29;41.28
22000;BME280;11164;48.818;2.322;2023-05-23T01:34:24;101018.72;;;18.08;41.76
22000;BME280;11164;48.818;2.322;2023-05-23T01:36:53;101020.00;;;17.94;42.00
22000;BME280;11164;48.818;2.322;2023-05-23T01:39:19;101027.25;;;18.00;41.63
22000;BME280;11164;48.818;2.322;2023-05-23T01:41:45;101021.78;;;18.00;41.59
22000;BME280;11164;48.818;2.322;2023-05-23T01:44:10;101020.63;;;17.84;41.92
22000;BME280;11164;48.818;2.322;2023-05-23T01:46:36;101027.22;;;17.76;42.03
22000;BME280;11164;48.818;2.322;2023-05-23T01:49:04;101024.25;;;17.54;42.79
22000;BME280;11164;48.818;2.322;2023-05-23T01:51:31;101023.72;;;17.34;42.80
22000;BME280;11164;48.818;2.322;2023-05-23T01:53:58;101031.63;;;17.66;42.10
22000;BME280;11164;48.818;2.322;2023-05-23T01:56:24;101030.44;;;17.73;42.12
22000;BME280;11164;48.818;2.322;2023-05-23T01:58:51;101024.38;;;17.48;42.72
22000;BME280;11164;48.818;2.322;2023-05-23T02:01:16;101027.47;;;17.63;42.52
22000;BME280;11164;48.818;2.322;2023-05-23T02:03:42;101027.59;;;17.80;41.93
22000;BME280;11164;48.818;2.322;2023-05-23T02:06:07;101031.38;;;17.55;42.32
22000;BME280;11164;48.818;2.322;2023-05-23T02:08:32;101022.31;;;17.43;42.79
22000;BME280;11164;48.818;2.322;2023-05-23T02:10:58;101018.19;;;17.52;42.04
22000;BME280;11164;48.818;2.322;2023-05-23T02:13:23;101024.50;;;17.65;42.18
22000;BME280;11164;48.818;2.322;2023-05-23T02:15:50;101027.09;;;17.59;42.17
22000;BME280;11164;48.818;2.322;2023-05-23T02:18:15;101036.38;;;17.28;42.64
22000;BME280;11164;48.818;2.322;2023-05-23T02:20:42;101030.03;;;17.04;43.12
22000;BME280;11164;48.818;2.322;2023-05-23T02:23:08;101018.16;;;17.40;42.30
22000;BME280;11164;48.818;2.322;2023-05-23T02:25:33;101038.16;;;17.34;42.73
22000;BME280;11164;48.818;2.322;2023-05-23T02:27:59;101031.75;;;17.29;42.85
22000;BME280;11164;48.818;2.322;2023-05-23T02:30:24;101035.50;;;17.16;43.16
22000;BME280;11164;48.818;2.322;2023-05-23T02:32:49;101011.69;;;17.23;42.89
22000;BME280;11164;48.818;2.322;2023-05-23T02:35:15;101033.91;;;17.27;42.69
22000;BME280;11164;48.818;2.322;2023-05-23T02:37:41;101029.03;;;17.29;42.92
22000;BME280;11164;48.818;2.322;2023-05-23T02:40:07;101031.41;;;17.37;42.87
22000;BME280;11164;48.818;2.322;2023-05-23T02:42:33;101032.59;;;17.29;42.81
22000;BME280;11164;48.818;2.322;2023-05-23T02:44:58;101037.66;;;17.25;42.85
22000;BME280;11164;48.818;2.322;2023-05-23T02:47:23;101026.25;;;16.86;43.99
22000;BME280;11164;48.818;2.322;2023-05-23T02:49:49;101026.81;;;16.58;44.19
22000;BME280;11164;48.818;2.322;2023-05-23T02:52:14;101018.97;;;16.68;43.78
22000;BME280;11164;48.818;2.322;2023-05-23T02:54:39;101022.81;;;17.10;43.19
22000;BME280;11164;48.818;2.322;2023-05-23T02:57:05;101027.41;;;17.09;43.23
22000;BME280;11164;48.818;2.322;2023-05-23T02:59:30;101022.31;;;17.01;43.16
22000;BME280;11164;48.818;2.322;2023-05-23T03:01:56;101036.25;;;16.93;43.81
22000;BME280;11164;48.818;2.322;2023-05-23T03:04:21;101031.72;;;16.86;43.94
22000;BME280;11164;48.818;2.322;2023-05-23T03:06:46;101029.13;;;16.92;43.42
22000;BME280;11164;48.818;2.322;2023-05-23T03:09:14;101044.50;;;16.86;43.97
22000;BME280;11164;48.818;2.322;2023-05-23T03:11:41;101037.06;;;16.63;44.18
22000;BME280;11164;48.818;2.322;2023-05-23T03:14:06;101041.03;;;16.79;43.99
22000;BME280;11164;48.818;2.322;2023-05-23T03:16:32;101040.91;;;16.74;43.93
22000;BME280;11164;48.818;2.322;2023-05-23T03:18:57;101036.94;;;16.88;43.37
22000;BME280;11164;48.818;2.322;2023-05-23T03:21:22;101039.50;;;17.01;43.23
22000;BME280;11164;48.818;2.322;2023-05-23T03:23:48;101037.03;;;17.12;42.96
22000;BME280;11164;48.818;2.322;2023-05-23T03:26:14;101040.97;;;16.85;43.48
22000;BME280;11164;48.818;2.322;2023-05-23T03:28:39;101035.38;;;16.62;44.02
22000;BME280;11164;48.818;2.322;2023-05-23T03:31:05;101041.50;;;16.39;44.44
22000;BME280;11164;48.818;2.322;2023-05-23T03:33:30;101054.06;;;16.40;44.53
22000;BME280;11164;48.818;2.322;2023-05-23T03:35:55;101057.16;;;16.62;43.97
22000;BME280;11164;48.818;2.322;2023-05-23T03:38:21;101045.81;;;16.65;43.96
22000;BME280;11164;48.818;2.322;2023-05-23T03:40:47;101054.59;;;16.85;43.46
22000;BME280;11164;48.818;2.322;2023-05-23T03:43:12;101056.63;;;16.90;43.49
22000;BME280;11164;48.818;2.322;2023-05-23T03:45:37;101062.31;;;17.00;43.32
22000;BME280;11164;48.818;2.322;2023-05-23T03:48:03;101063.13;;;16.89;43.45
22000;BME280;11164;48.818;2.322;2023-05-23T03:50:28;101057.00;;;16.75;43.99
22000;BME280;11164;48.818;2.322;2023-05-23T03:52:54;101067.53;;;16.72;43.73
22000;BME280;11164;48.818;2.322;2023-05-23T03:55:20;101066.22;;;16.74;43.91
22000;BME280;11164;48.818;2.322;2023-05-23T03:57:47;101064.53;;;16.36;44.44
22000;BME280;11164;48.818;2.322;2023-05-23T04:00:13;101077.38;;;16.10;44.78
22000;BME280;11164;48.818;2.322;2023-05-23T04:02:39;101063.56;;;16.12;44.75
22000;BME280;11164;48.818;2.322;2023-05-23T04:05:05;101068.84;;;16.07;44.60
22000;BME280;11164;48.818;2.322;2023-05-23T04:07:31;101078.31;;;15.98;44.95
22000;BME280;11164;48.818;2.322;2023-05-23T04:09:59;101082.31;;;15.95;44.77
22000;BME280;11164;48.818;2.322;2023-05-23T04:12:25;101084.13;;;16.01;44.89
22000;BME280;11164;48.818;2.322;2023-05-23T04:14:50;101082.13;;;16.15;44.63
22000;BME280;11164;48.818;2.322;2023-05-23T04:17:16;101075.34;;;16.24;44.51
22000;BME280;11164;48.818;2.322;2023-05-23T04:19:43;101093.84;;;15.90;45.05
22000;BME280;11164;48.818;2.322;2023-05-23T04:22:08;101087.97;;;15.93;44.68
22000;BME280;11164;48.818;2.322;2023-05-23T04:24:34;101093.88;;;16.16;44.31
22000;BME280;11164;48.818;2.322;2023-05-23T04:26:59;101099.25;;;15.97;44.80
22000;BME280;11164;48.818;2.322;2023-05-23T04:29:25;101096.91;;;16.01;44.55
22000;BME280;11164;48.818;2.322;2023-05-23T04:31:50;101090.66;;;16.00;44.38
22000;BME280;11164;48.818;2.322;2023-05-23T04:34:15;101099.75;;;15.87;44.85
22000;BME280;11164;48.818;2.322;2023-05-23T04:36:41;101085.88;;;15.96;44.38
22000;BME280;11164;48.818;2.322;2023-05-23T04:39:08;101092.50;;;16.00;44.61
22000;BME280;11164;48.818;2.322;2023-05-23T04:41:34;101096.59;;;16.16;44.07
22000;BME280;11164;48.818;2.322;2023-05-23T04:44:01;101099.97;;;16.11;44.31
22000;BME280;11164;48.818;2.322;2023-05-23T04:46:26;101101.00;;;16.10;44.47
22000;BME280;11164;48.818;2.322;2023-05-23T04:48:52;101105.34;;;15.92;44.94
22000;BME280;11164;48.818;2.322;2023-05-23T04:51:19;101103.81;;;16.03;44.61
22000;BME280;11164;48.818;2.322;2023-05-23T04:53:46;101095.88;;;16.02;44.55
22000;BME280;11164;48.818;2.322;2023-05-23T04:56:11;101113.34;;;16.12;44.18
22000;BME280;11164;48.818;2.322;2023-05-23T04:58:37;101115.41;;;16.36;43.97
22000;BME280;11164;48.818;2.322;2023-05-23T05:01:04;101114.28;;;16.25;44.44
22000;BME280;11164;48.818;2.322;2023-05-23T05:03:30;101101.97;;;16.41;43.87
22000;BME280;11164;48.818;2.322;2023-05-23T05:05:56;101103.59;;;16.48;43.91
22000;BME280;11164;48.818;2.322;2023-05-23T05:08:21;101103.47;;;15.93;45.30
22000;BME280;11164;48.818;2.322;2023-05-23T05:10:47;101106.84;;;15.88;45.26
22000;BME280;11164;48.818;2.322;2023-05-23T05:13:14;101116.88;;;16.13;44.54
22000;BME280;11164;48.818;2.322;2023-05-23T05:15:39;101121.38;;;16.01;44.91
22000;BME280;11164;48.818;2.322;2023-05-23T05:18:05;101122.16;;;16.08;44.62
22000;BME280;11164;48.818;2.322;2023-05-23T05:20:30;101113.72;;;15.91;45.28
22000;BME280;11164;48.818;2.322;2023-05-23T05:22:56;101117.41;;;16.03;45.02
22000;BME280;11164;48.818;2.322;2023-05-23T05:25:22;101124.88;;;16.33;44.36
22000;BME280;11164;48.818;2.322;2023-05-23T05:27:48;101119.81;;;16.11;44.79
22000;BME280;11164;48.818;2.322;2023-05-23T05:30:13;101115.94;;;16.26;44.32
22000;BME280;11164;48.818;2.322;2023-05-23T05:32:39;101123.03;;;16.27;44.62
22000;BME280;11164;48.818;2.322;2023-05-23T05:35:04;101116.72;;;16.33;44.60
22000;BME280;11164;48.818;2.322;2023-05-23T05:37:32;101125.84;;;15.95;45.21
22000;BME280;11164;48.818;2.322;2023-05-23T05:39:57;101127.44;;;16.03;45.08
22000;BME280;11164;48.818;2.322;2023-05-23T05:42:23;101127.97;;;16.37;44.55
22000;BME280;11164;48.818;2.322;2023-05-23T05:44:49;101121.41;;;15.75;45.93
22000;BME280;11164;48.818;2.322;2023-05-23T05:47:14;101131.19;;;15.77;45.73
22000;BME280;11164;48.818;2.322;2023-05-23T05:49:40;101135.47;;;15.91;45.67
22000;BME280;11164;48.818;2.322;2023-05-23T05:52:06;101129.28;;;16.09;45.27
22000;BME280;11164;48.818;2.322;2023-05-23T05:54:31;101138.31;;;16.28;45.34
22000;BME280;11164;48.818;2.322;2023-05-23T05:56:57;101126.84;;;16.01;45.41
22000;BME280;11164;48.818;2.322;2023-05-23T05:59:22;101136.19;;;16.05;45.33
22000;BME280;11164;48.818;2.322;2023-05-23T06:01:48;101135.38;;;16.48;44.72
22000;BME280;11164;48.818;2.322;2023-05-23T06:04:15;101141.81;;;16.79;44.04
22000;BME280;11164;48.818;2.322;2023-05-23T06:06:41;101151.28;;;16.76;44.39
22000;BME280;11164;48.818;2.322;2023-05-23T06:09:08;101143.63;;;16.85;44.00
22000;BME280;11164;48.818;2.322;2023-05-23T06:11:33;101140.13;;;16.34;45.21
22000;BME280;11164;48.818;2.322;2023-05-23T06:13:58;101151.97;;;15.96;46.01
22000;BME280;11164;48.818;2.322;2023-05-23T06:16:24;101146.19;;;16.36;45.01
22000;BME280;11164;48.818;2.322;2023-05-23T06:18:49;101126.28;;;16.61;44.69
22000;BME280;11164;48.818;2.322;2023-05-23T06:21:14;101142.81;;;16.59;44.93
22000;BME280;11164;48.818;2.322;2023-05-23T06:23:40;101148.41;;;16.46;45.12
22000;BME280;11164;48.818;2.322;2023-05-23T06:26:05;101142.22;;;16.57;45.07
22000;BME280;11164;48.818;2.322;2023-05-23T06:28:35;101147.16;;;16.23;45.81
22000;BME280;11164;48.818;2.322;2023-05-23T06:31:00;101146.69;;;16.01;46.01
22000;BME280;11164;48.818;2.322;2023-05-23T06:33:27;101145.97;;;16.38;45.55
22000;BME280;11164;48.818;2.322;2023-05-23T06:35:52;101149.25;;;16.21;45.57
22000;BME280;11164;48.818;2.322;2023-05-23T06:38:19;101145.91;;;16.44;45.38
22000;BME280;11164;48.818;2.322;2023-05-23T06:40:46;101142.59;;;16.61;44.82
22000;BME280;11164;48.818;2.322;2023-05-23T06:43:12;101141.38;;;16.38;45.94
22000;BME280;11164;48.818;2.322;2023-05-23T06:45:37;101155.03;;;16.06;46.19
22000;BME280;11164;48.818;2.322;2023-05-23T06:48:03;101160.47;;;16.06;45.91
22000;BME280;11164;48.818;2.322;2023-05-23T06:50:28;101160.63;;;16.11;45.88
22000;BME280;11164;48.818;2.322;2023-05-23T06:52:54;101165.53;;;16.28;45.75
22000;BME280;11164;48.818;2.322;2023-05-23T06:55:20;101171.91;;;16.59;44.80
22000;BME280;11164;48.818;2.322;2023-05-23T06:57:46;101178.22;;;16.59;45.03
22000;BME280;11164;48.818;2.322;2023-05-23T07:00:12;101169.66;;;16.56;45.14
22000;BME280;11164;48.818;2.322;2023-05-23T07:02:40;101178.97;;;16.23;46.14
22000;BME280;11164;48.818;2.322;2023-05-23T07:05:05;101182.56;;;16.67;45.09
22000;BME280;11164;48.818;2.322;2023-05-23T07:07:31;101177.22;;;16.97;44.27
22000;BME280;11164;48.818;2.322;2023-05-23T07:09:56;101187.13;;;17.10;44.13
22000;BME280;11164;48.818;2.322;2023-05-23T07:12:21;101194.75;;;16.83;44.86
22000;BME280;11164;48.818;2.322;2023-05-23T07:14:47;101189.44;;;16.44;45.62
22000;BME280;11164;48.818;2.322;2023-05-23T07:17:12;101190.22;;;16.51;45.68
22000;BME280;11164;48.818;2.322;2023-05-23T07:19:37;101199.97;;;16.16;46.52
22000;BME280;11164;48.818;2.322;2023-05-23T07:22:03;101195.66;;;16.51;45.46
22000;BME280;11164;48.818;2.322;2023-05-23T07:24:28;101185.69;;;16.89;44.70
22000;BME280;11164;48.818;2.322;2023-05-23T07:26:54;101192.41;;;16.86;44.96
22000;BME280;11164;48.818;2.322;2023-05-23T07:29:19;101206.63;;;16.70;45.50
22000;BME280;11164;48.818;2.322;2023-05-23T07:31:44;101189.63;;;16.75;45.17
22000;BME280;11164;48.818;2.322;2023-05-23T07:34:10;101197.00;;;16.42;46.13
22000;BME280;11164;48.818;2.322;2023-05-23T07:36:35;101205.88;;;16.31;46.34
22000;BME280;11164;48.818;2.322;2023-05-23T07:39:02;101208.94;;;16.41;45.82
22000;BME280;11164;48.818;2.322;2023-05-23T07:41:27;101220.69;;;16.42;46.24
22000;BME280;11164;48.818;2.322;2023-05-23T07:43:53;101214.13;;;16.75;45.52
22000;BME280;11164;48.818;2.322;2023-05-23T07:46:18;101208.97;;;17.03;44.86
22000;BME280;11164;48.818;2.322;2023-05-23T07:48:45;101217.16;;;16.60;45.69
22000;BME280;11164;48.818;2.322;2023-05-23T07:51:10;101215.78;;;16.76;45.63
22000;BME280;11164;48.818;2.322;2023-05-23T07:53:35;101225.41;;;16.97;44.91
22000;BME280;11164;48.818;2.322;2023-05-23T07:56:05;101219.63;;;16.86;45.30
22000;BME280;11164;48.818;2.322;2023-05-23T07:58:30;101213.16;;;17.06;44.45
22000;BME280;11164;48.818;2.322;2023-05-23T08:00:55;101211.25;;;17.25;44.38
22000;BME280;11164;48.818;2.322;2023-05-23T08:03:22;101216.75;;;17.37;44.17
22000;BME280;11164;48.818;2.322;2023-05-23T08:05:48;101226.84;;;16.56;45.91
22000;BME280;11164;48.818;2.322;2023-05-23T08:08:14;101220.44;;;16.94;45.00
22000;BME280;11164;48.818;2.322;2023-05-23T08:10:39;101226.59;;;16.82;45.52
22000;BME280;11164;48.818;2.322;2023-05-23T08:13:05;101227.09;;;16.73;45.95
22000;BME280;11164;48.818;2.322;2023-05-23T08:15:31;101230.94;;;16.90;45.22
22000;BME280;11164;48.818;2.322;2023-05-23T08:17:57;101236.78;;;16.94;45.25
22000;BME280;11164;48.818;2.322;2023-05-23T08:20:24;101232.28;;;17.18;44.83
22000;BME280;11164;48.818;2.322;2023-05-23T08:22:58;101230.78;;;17.40;44.23
22000;BME280;11164;48.818;2.322;2023-05-23T08:25:25;101217.53;;;17.44;44.30
22000;BME280;11164;48.818;2.322;2023-05-23T08:27:55;101222.97;;;17.44;44.01
22000;BME280;11164;48.818;2.322;2023-05-23T08:30:21;101225.41;;;17.15;44.62
22000;BME280;11164;48.818;2.322;2023-05-23T08:32:47;101217.91;;;17.11;44.78
22000;BME280;11164;48.818;2.322;2023-05-23T08:35:12;101238.19;;;16.96;45.48
22000;BME280;11164;48.818;2.322;2023-05-23T08:37:38;101240.09;;;17.33;44.47
22000;BME280;11164;48.818;2.322;2023-05-23T08:40:06;101227.44;;;17.57;44.22
22000;BME280;11164;48.818;2.322;2023-05-23T08:42:32;101234.72;;;17.44;44.45
22000;BME280;11164;48.818;2.322;2023-05-23T08:44:58;101249.31;;;16.95;45.09
22000;BME280;11164;48.818;2.322;2023-05-23T08:47:23;101244.72;;;17.14;44.80
22000;BME280;11164;48.818;2.322;2023-05-23T08:49:50;101250.94;;;16.77;45.50
22000;BME280;11164;48.818;2.322;2023-05-23T08:52:20;101247.97;;;17.04;44.89
22000;BME280;11164;48.818;2.322;2023-05-23T08:54:49;101244.53;;;17.45;43.97
22000;BME280;11164;48.818;2.322;2023-05-23T08:57:15;101234.94;;;17.43;44.20
22000;BME280;11164;48.818;2.322;2023-05-23T08:59:41;101244.47;;;16.97;45.16
22000;BME280;11164;48.818;2.322;2023-05-23T09:02:09;101245.69;;;17.38;44.40
22000;BME280;11164;48.818;2.322;2023-05-23T09:04:36;101242.16;;;17.86;43.45
22000;BME280;11164;48.818;2.322;2023-05-23T09:07:01;101238.03;;;17.65;43.86
22000;BME280;11164;48.818;2.322;2023-05-23T09:09:27;101251.78;;;17.21;44.96
22000;BME280;11164;48.818;2.322;2023-05-23T09:11:54;101252.63;;;16.97;45.70
22000;BME280;11164;48.818;2.322;2023-05-23T09:14:19;101250.94;;;17.02;45.36
22000;BME280;11164;48.818;2.322;2023-05-23T09:16:46;101243.66;;;16.96;45.25
22000;BME280;11164;48.818;2.322;2023-05-23T09:19:13;101236.28;;;16.97;45.29
22000;BME280;11164;48.818;2.322;2023-05-23T09:21:43;101240.25;;;17.01;45.46
22000;BME280;11164;48.818;2.322;2023-05-23T09:24:09;101258.81;;;17.48;44.27
22000;BME280;11164;48.818;2.322;2023-05-23T09:26:34;101256.97;;;17.41;44.16
22000;BME280;11164;48.818;2.322;2023-05-23T09:29:04;101253.84;;;17.75;43.88
22000;BME280;11164;48.818;2.322;2023-05-23T09:31:30;101254.91;;;17.37;44.65
22000;BME280;11164;48.818;2.322;2023-05-23T09:33:56;101245.78;;;17.50;44.50
22000;BME280;11164;48.818;2.322;2023-05-23T09:36:22;101255.03;;;17.30;45.06
22000;BME280;11164;48.818;2.322;2023-05-23T09:38:49;101256.91;;;17.30;44.95
22000;BME280;11164;48.818;2.322;2023-05-23T09:41:18;101247.50;;;17.25;44.96
22000;BME280;11164;48.818;2.322;2023-05-23T09:43:51;101252.59;;;17.40;44.44
22000;BME280;11164;48.818;2.322;2023-05-23T09:46:19;101251.06;;;17.44;44.84
22000;BME280;11164;48.818;2.322;2023-05-23T09:48:51;101249.50;;;17.55;44.49
22000;BME280;11164;48.818;2.322;2023-05-23T09:51:19;101250.81;;;17.65;44.24
22000;BME280;11164;48.818;2.322;2023-05-23T09:53:47;101257.13;;;17.65;44.25
22000;BME280;11164;48.818;2.322;2023-05-23T09:56:14;101254.72;;;17.87;44.27
22000;BME280;11164;48.818;2.322;2023-05-23T09:58:47;101257.44;;;17.87;44.08
22000;BME280;11164;48.818;2.322;2023-05-23T10:01:13;101253.66;;;17.39;44.58
22000;BME280;11164;48.818;2.322;2023-05-23T10:06:11;101259.25;;;17.44;44.30
22000;BME280;11164;48.818;2.322;2023-05-23T10:08:43;101264.97;;;17.73;44.19
22000;BME280;11164;48.818;2.322;2023-05-23T10:13:40;101256.97;;;17.04;45.12
22000;BME280;11164;48.818;2.322;2023-05-23T10:18:42;101250.09;;;17.39;44.54
22000;BME280;11164;48.818;2.322;2023-05-23T10:21:14;101262.31;;;18.15;43.43
22000;BME280;11164;48.818;2.322;2023-05-23T10:23:41;101255.16;;;18.45;43.43
22000;BME280;11164;48.818;2.322;2023-05-23T10:26:08;101257.34;;;18.24;43.57
22000;BME280;11164;48.818;2.322;2023-05-23T10:28:34;101270.22;;;18.47;43.08
22000;BME280;11164;48.818;2.322;2023-05-23T10:30:59;101257.78;;;18.87;42.21
22000;BME280;11164;48.818;2.322;2023-05-23T10:33:26;101259.78;;;19.03;42.17
22000;BME280;11164;48.818;2.322;2023-05-23T10:36:00;101266.19;;;19.21;41.87
22000;BME280;11164;48.818;2.322;2023-05-23T10:38:44;101264.31;;;18.98;41.25
22000;BME280;11164;48.818;2.322;2023-05-23T10:41:27;101257.41;;;18.71;41.14
22000;BME280;11164;48.818;2.322;2023-05-23T10:44:15;101269.63;;;18.69;42.05
22000;BME280;11164;48.818;2.322;2023-05-23T10:49:19;101268.81;;;18.68;41.85
22000;BME280;11164;48.818;2.322;2023-05-23T10:51:48;101262.03;;;18.83;41.82
22000;BME280;11164;48.818;2.322;2023-05-23T10:54:17;101255.88;;;18.75;42.32
22000;BME280;11164;48.818;2.322;2023-05-23T10:56:43;101251.94;;;18.60;42.48
22000;BME280;11164;48.818;2.322;2023-05-23T10:59:18;101262.41;;;18.09;42.61
22000;BME280;11164;48.818;2.322;2023-05-23T11:01:44;101274.31;;;18.26;42.92
22000;BME280;11164;48.818;2.322;2023-05-23T11:04:11;101270.25;;;18.71;42.39
22000;BME280;11164;48.818;2.322;2023-05-23T11:06:43;101266.81;;;19.23;41.56
22000;BME280;11164;48.818;2.322;2023-05-23T11:09:13;101265.66;;;19.59;41.02
22000;BME280;11164;48.818;2.322;2023-05-23T11:19:39;101260.16;;;18.95;41.63
22000;BME280;11164;48.818;2.322;2023-05-23T11:22:19;101260.94;;;18.36;42.47
22000;BME280;11164;48.818;2.322;2023-05-23T11:24:50;101250.97;;;18.42;41.82
22000;BME280;11164;48.818;2.322;2023-05-23T11:27:16;101258.84;;;18.74;41.76
22000;BME280;11164;48.818;2.322;2023-05-23T11:29:54;101249.59;;;18.99;41.06
22000;BME280;11164;48.818;2.322;2023-05-23T11:32:20;101247.19;;;18.67;41.61
22000;BME280;11164;48.818;2.322;2023-05-23T11:34:45;101252.31;;;18.87;41.47
22000;BME280;11164;48.818;2.322;2023-05-23T11:37:11;101250.19;;;19.12;40.76
22000;BME280;11164;48.818;2.322;2023-05-23T11:39:37;101248.75;;;19.10;40.84
22000;BME280;11164;48.818;2.322;2023-05-23T11:42:03;101252.13;;;19.41;40.27
22000;BME280;11164;48.818;2.322;2023-05-23T11:44:29;101248.63;;;18.93;41.20
22000;BME280;11164;48.818;2.322;2023-05-23T11:47:07;101256.69;;;19.00;40.98
22000;BME280;11164;48.818;2.322;2023-05-23T11:49:34;101253.72;;;19.25;40.82
22000;BME280;11164;48.818;2.322;2023-05-23T11:52:03;101251.69;;;20.01;39.68
22000;BME280;11164;48.818;2.322;2023-05-23T11:54:29;101245.41;;;20.01;39.64
22000;BME280;11164;48.818;2.322;2023-05-23T12:09:42;101237.69;;;20.49;37.35
22000;BME280;11164;48.818;2.322;2023-05-23T12:12:08;101239.03;;;20.63;39.07
22000;BME280;11164;48.818;2.322;2023-05-23T12:14:33;101244.94;;;20.38;39.03
22000;BME280;11164;48.818;2.322;2023-05-23T12:16:59;101239.03;;;20.63;38.56
22000;BME280;11164;48.818;2.322;2023-05-23T12:19:24;101243.63;;;20.57;38.57
22000;BME280;11164;48.818;2.322;2023-05-23T12:21:50;101240.56;;;20.93;37.86
22000;BME280;11164;48.818;2.322;2023-05-23T12:24:20;101237.16;;;20.64;37.42
22000;BME280;11164;48.818;2.322;2023-05-23T12:26:58;101247.25;;;20.80;36.27
22000;BME280;11164;48.818;2.322;2023-05-23T12:29:32;101246.94;;;21.15;37.11
22000;BME280;11164;48.818;2.322;2023-05-23T12:31:59;101239.91;;;21.25;37.11
22000;BME280;11164;48.818;2.322;2023-05-23T12:34:25;101235.84;;;21.49;36.77
22000;BME280;11164;48.818;2.322;2023-05-23T12:36:58;101228.66;;;21.70;35.86
22000;BME280;11164;48.818;2.322;2023-05-23T12:39:25;101231.22;;;22.37;32.56
22000;BME280;11164;48.818;2.322;2023-05-23T12:41:51;101230.31;;;22.26;35.88
22000;BME280;11164;48.818;2.322;2023-05-23T12:44:17;101216.72;;;22.46;35.79
22000;BME280;11164;48.818;2.322;2023-05-23T12:46:42;101226.25;;;23.19;34.65
22000;BME280;11164;48.818;2.322;2023-05-23T12:49:08;101211.22;;;23.37;34.76
22000;BME280;11164;48.818;2.322;2023-05-23T12:51:33;101216.31;;;24.17;34.38
22000;BME280;11164;48.818;2.322;2023-05-23T12:54:00;101215.13;;;23.67;34.64
22000;BME280;11164;48.818;2.322;2023-05-23T12:56:25;101207.06;;;23.29;35.09
22000;BME280;11164;48.818;2.322;2023-05-23T12:58:50;101212.25;;;22.73;35.58
22000;BME280;11164;48.818;2.322;2023-05-23T13:01:18;101215.59;;;22.80;35.25
22000;BME280;11164;48.818;2.322;2023-05-23T13:03:43;101208.16;;;22.75;35.19
22000;BME280;11164;48.818;2.322;2023-05-23T13:06:10;101203.75;;;22.74;34.96
22000;BME280;11164;48.818;2.322;2023-05-23T13:08:37;101211.09;;;23.16;34.45
22000;BME280;11164;48.818;2.322;2023-05-23T13:11:02;101198.91;;;23.70;33.75
22000;BME280;11164;48.818;2.322;2023-05-23T13:13:28;101191.53;;;24.17;32.97
22000;BME280;11164;48.818;2.322;2023-05-23T13:15:54;101194.28;;;24.12;33.05
22000;BME280;11164;48.818;2.322;2023-05-23T13:18:20;101191.78;;;24.41;32.50
22000;BME280;11164;48.818;2.322;2023-05-23T13:20:46;101193.47;;;24.32;32.73
22000;BME280;11164;48.818;2.322;2023-05-23T13:23:11;101190.66;;;23.75;32.75